createdAt,value
2022-12-11T00:00:44.041Z,100813.13
2022-12-11T00:03:25.899Z,100813.81
2022-12-11T00:06:08.002Z,100823.31
2022-12-11T00:08:48.494Z,100818.88
2022-12-11T00:11:29.736Z,100816.25
2022-12-11T00:14:12.533Z,100818.88
2022-12-11T00:16:52.487Z,100812.75
2022-12-11T00:19:35.082Z,100809.91
2022-12-11T00:22:17.322Z,100799.16
2022-12-11T00:24:58.297Z,100801.53
2022-12-11T00:27:40.277Z,100792.25
2022-12-11T00:30:21.171Z,100782.13
2022-12-11T00:33:00.981Z,100762.97
2022-12-11T00:35:41.482Z,100745.25
2022-12-11T00:38:20.884Z,100735.44
2022-12-11T00:41:00.429Z,100730.78
2022-12-11T00:43:41.873Z,100709.53
2022-12-11T00:46:23.241Z,100712.44
2022-12-11T00:49:04.824Z,100704.53
2022-12-11T00:51:44.082Z,100714.81
2022-12-11T00:54:26.196Z,100701.03
2022-12-11T00:57:07.191Z,100701.88
2022-12-11T00:59:46.975Z,100701.78
2022-12-11T01:02:26.906Z,100703.03
2022-12-11T01:05:10.560Z,100702.63
2022-12-11T01:07:51.275Z,100701.69
2022-12-11T01:10:34.789Z,100699.84
2022-12-11T01:13:15.733Z,100694.41
2022-12-11T01:15:55.117Z,100680.41
2022-12-11T01:18:35.249Z,100675.94
2022-12-11T01:21:15.045Z,100660.06
2022-12-11T01:23:54.859Z,100649.03
2022-12-11T01:26:34.682Z,100635.47
2022-12-11T01:29:12.530Z,100626.28
2022-12-11T01:31:50.747Z,100618.97
2022-12-11T01:34:33.238Z,100617.22
2022-12-11T01:37:13.886Z,100609.31
2022-12-11T01:39:53.700Z,100608.19
2022-12-11T01:42:34.761Z,100613.22
2022-12-11T01:45:32.068Z,100609.31
2022-12-11T01:48:12.982Z,100604.09
2022-12-11T01:50:55.104Z,100601.28
2022-12-11T01:53:35.815Z,100604.09
2022-12-11T01:56:16.502Z,100597.34
2022-12-11T01:58:57.466Z,100604.00
2022-12-11T02:01:41.179Z,100609.00
2022-12-11T02:04:24.315Z,100609.94
2022-12-11T02:07:05.404Z,100624.50
2022-12-11T02:09:45.454Z,100624.41
2022-12-11T02:12:27.653Z,100620.44
2022-12-11T02:15:11.128Z,100626.34
2022-12-11T02:17:55.590Z,100627.19
2022-12-11T02:20:37.166Z,100629.63
2022-12-11T02:23:42.863Z,100636.44
2022-12-11T02:26:30.758Z,100641.44
2022-12-11T02:29:14.374Z,100629.19
2022-12-11T02:31:54.181Z,100628.88
2022-12-11T02:34:35.493Z,100629.78
2022-12-11T02:37:16.283Z,100627.19
2022-12-11T02:39:59.525Z,100626.25
2022-12-11T02:42:40.650Z,100637.44
2022-12-11T02:46:04.231Z,100637.59
2022-12-11T02:48:47.476Z,100629.03
2022-12-11T02:51:31.905Z,100611.63
2022-12-11T02:54:17.022Z,100597.19
2022-12-11T02:57:00.132Z,100575.44
2022-12-11T02:59:43.460Z,100563.22
2022-12-11T03:02:24.039Z,100545.31
2022-12-11T03:05:03.174Z,100535.22
2022-12-11T03:07:43.745Z,100504.63
2022-12-11T03:10:26.653Z,100492.44
2022-12-11T03:13:07.697Z,100484.50
2022-12-11T03:15:49.670Z,100472.59
2022-12-11T03:18:31.573Z,100462.28
2022-12-11T03:21:13.539Z,100454.72
2022-12-11T03:23:56.411Z,100444.31
2022-12-11T03:26:36.966Z,100439.47
2022-12-11T03:29:19.352Z,100436.94
2022-12-11T03:31:59.431Z,100432.56
2022-12-11T03:34:42.416Z,100428.03
2022-12-11T03:37:23.550Z,100431.38
2022-12-11T03:40:04.645Z,100430.63
2022-12-11T03:42:44.945Z,100436.94
2022-12-11T03:45:26.205Z,100435.09
2022-12-11T03:48:07.130Z,100430.81
2022-12-11T03:50:45.535Z,100430.88
2022-12-11T03:53:25.767Z,100440.03
2022-12-11T03:56:07.629Z,100431.16
2022-12-11T03:58:48.415Z,100436.78
2022-12-11T04:01:30.202Z,100447.03
2022-12-11T04:04:11.330Z,100445.94
2022-12-11T04:06:54.599Z,100444.69
2022-12-11T04:09:36.296Z,100433.59
2022-12-11T04:12:17.194Z,100426.00
2022-12-11T04:15:03.338Z,100419.34
2022-12-11T04:18:02.498Z,100415.44
2022-12-11T04:21:01.422Z,100406.31
2022-12-11T04:24:00.289Z,100397.09
2022-12-11T04:26:40.187Z,100397.69
2022-12-11T04:29:21.447Z,100410.72
2022-12-11T04:32:01.295Z,100402.72
2022-12-11T04:34:43.071Z,100406.25
2022-12-11T04:37:24.081Z,100400.28
2022-12-11T04:40:04.031Z,100404.56
2022-12-11T04:42:45.394Z,100408.94
2022-12-11T04:45:26.814Z,100403.22
2022-12-11T04:48:08.477Z,100398.09
2022-12-11T04:50:49.511Z,100386.84
2022-12-11T04:53:31.481Z,100374.13
2022-12-11T04:56:13.199Z,100372.19
2022-12-11T04:58:53.785Z,100355.97
2022-12-11T05:01:33.605Z,100348.81
2022-12-11T05:04:11.437Z,100341.75
2022-12-11T05:06:51.646Z,100332.03
2022-12-11T05:09:31.086Z,100328.31
2022-12-11T05:12:11.194Z,100325.63
2022-12-11T05:14:53.942Z,100321.78
2022-12-11T05:17:35.994Z,100313.44
2022-12-11T05:20:15.254Z,100316.72
2022-12-11T05:23:39.024Z,100313.03
2022-12-11T05:26:20.326Z,100298.25
2022-12-11T05:29:00.178Z,100302.00
2022-12-11T05:31:42.082Z,100300.84
2022-12-11T05:34:23.083Z,100300.00
2022-12-11T05:37:06.416Z,100302.28
2022-12-11T05:39:47.406Z,100301.59
2022-12-11T05:42:29.117Z,100299.66
2022-12-11T05:45:11.084Z,100294.19
2022-12-11T05:47:51.666Z,100298.47
2022-12-11T05:50:33.691Z,100292.50
2022-12-11T05:53:14.428Z,100285.06
2022-12-11T05:56:02.183Z,100285.44
2022-12-11T05:58:42.236Z,100285.13
2022-12-11T06:01:24.253Z,100291.09
2022-12-11T06:04:05.493Z,100281.78
2022-12-11T06:06:46.402Z,100287.97
2022-12-11T06:09:29.760Z,100291.50
2022-12-11T06:12:10.722Z,100295.56
2022-12-11T06:14:50.500Z,100289.06
2022-12-11T06:17:28.634Z,100293.19
2022-12-11T06:20:11.012Z,100295.69
2022-12-11T06:22:51.525Z,100293.09
2022-12-11T06:25:31.738Z,100286.97
2022-12-11T06:28:12.809Z,100297.22
2022-12-11T06:30:52.564Z,100301.44
2022-12-11T06:33:32.359Z,100309.50
2022-12-11T06:36:12.915Z,100312.25
2022-12-11T06:38:53.592Z,100311.94
2022-12-11T06:41:33.372Z,100323.94
2022-12-11T06:44:13.498Z,100322.28
2022-12-11T06:46:54.570Z,100334.38
2022-12-11T06:49:32.462Z,100338.16
2022-12-11T06:52:18.056Z,100341.44
2022-12-11T06:54:58.778Z,100340.53
2022-12-11T06:57:38.617Z,100340.34
2022-12-11T07:00:18.717Z,100337.06
2022-12-11T07:02:59.824Z,100337.81
2022-12-11T07:05:38.058Z,100337.41
2022-12-11T07:08:17.879Z,100330.94
2022-12-11T07:11:04.166Z,100338.41
2022-12-11T07:13:45.485Z,100340.50
2022-12-11T07:16:25.276Z,100344.97
2022-12-11T07:19:07.250Z,100338.00
2022-12-11T07:21:50.232Z,100340.59
2022-12-11T07:24:33.331Z,100350.84
2022-12-11T07:27:14.069Z,100337.91
2022-12-11T07:29:55.441Z,100348.16
2022-12-11T07:32:35.423Z,100341.69
2022-12-11T07:35:14.793Z,100342.75
2022-12-11T07:37:53.026Z,100345.06
2022-12-11T07:40:31.566Z,100352.53
2022-12-11T07:43:11.330Z,100357.75
2022-12-11T07:45:49.241Z,100352.09
2022-12-11T07:48:31.356Z,100349.50
2022-12-11T07:51:12.793Z,100354.72
2022-12-11T07:53:54.204Z,100357.91
2022-12-11T07:56:54.425Z,100354.13
2022-12-11T07:59:34.341Z,100355.88
2022-12-11T08:02:15.627Z,100352.34
2022-12-11T08:04:58.999Z,100366.31
2022-12-11T08:07:40.422Z,100357.41
2022-12-11T08:10:22.860Z,100366.13
2022-12-11T08:13:04.774Z,100363.78
2022-12-11T08:15:45.854Z,100360.34
2022-12-11T08:18:27.197Z,100357.81
2022-12-11T08:21:07.717Z,100363.28
2022-12-11T08:23:48.415Z,100360.78
2022-12-11T08:26:29.690Z,100357.16
2022-12-11T08:29:09.655Z,100356.91
2022-12-11T08:31:47.512Z,100357.75
2022-12-11T08:34:27.971Z,100356.47
2022-12-11T08:37:09.083Z,100357.84
2022-12-11T08:39:48.846Z,100364.28
2022-12-11T08:42:26.792Z,100360.50
2022-12-11T08:45:07.838Z,100353.09
2022-12-11T08:47:48.293Z,100341.28
2022-12-11T08:50:28.165Z,100341.84
2022-12-11T08:53:08.121Z,100338.22
2022-12-11T08:55:49.289Z,100337.25
2022-12-11T08:58:29.148Z,100336.06
2022-12-11T09:01:09.917Z,100334.38
2022-12-11T09:03:50.890Z,100339.16
2022-12-11T09:06:33.470Z,100334.38
2022-12-11T09:09:14.971Z,100335.03
2022-12-11T09:11:56.479Z,100334.19
2022-12-11T09:14:37.834Z,100328.06
2022-12-11T09:17:18.959Z,100321.84
2022-12-11T09:20:00.767Z,100317.81
2022-12-11T09:22:43.803Z,100311.19
2022-12-11T09:25:26.772Z,100299.31
2022-12-11T09:28:07.792Z,100301.06
2022-12-11T09:30:49.645Z,100293.69
2022-12-11T09:33:32.611Z,100288.97
2022-12-11T09:36:13.834Z,100290.34
2022-12-11T09:38:55.097Z,100286.81
2022-12-11T09:41:38.852Z,100276.59
2022-12-11T09:44:29.936Z,100276.59
2022-12-11T09:47:17.555Z,100284.00
2022-12-11T09:49:57.994Z,100272.81
2022-12-11T09:52:38.562Z,100273.66
2022-12-11T09:55:20.655Z,100274.72
2022-12-11T09:58:02.094Z,100270.84
2022-12-11T10:00:42.535Z,100270.75
2022-12-11T10:03:35.221Z,100278.31
2022-12-11T10:06:21.291Z,100279.97
2022-12-11T10:09:05.049Z,100274.19
2022-12-11T10:11:56.099Z,100269.25
2022-12-11T10:14:40.747Z,100257.34
2022-12-11T10:17:22.049Z,100257.81
2022-12-11T10:20:05.205Z,100242.25
2022-12-11T10:22:43.654Z,100242.94
2022-12-11T10:25:26.441Z,100238.19
2022-12-11T10:28:11.412Z,100239.97
2022-12-11T10:30:52.238Z,100245.94
2022-12-11T10:33:34.550Z,100238.50
2022-12-11T10:36:18.932Z,100240.00
2022-12-11T10:39:00.762Z,100239.50
2022-12-11T10:41:43.202Z,100239.59
2022-12-11T10:44:22.133Z,100237.47
2022-12-11T10:47:04.722Z,100227.19
2022-12-11T10:49:53.034Z,100223.41
2022-12-11T10:52:34.824Z,100222.66
2022-12-11T10:55:20.053Z,100225.44
2022-12-11T10:58:02.369Z,100219.50
2022-12-11T11:00:41.487Z,100233.03
2022-12-11T11:03:23.770Z,100228.44
2022-12-11T11:06:04.611Z,100225.63
2022-12-11T11:08:48.159Z,100223.59
2022-12-11T11:11:29.689Z,100226.22
2022-12-11T11:14:13.433Z,100225.53
2022-12-11T11:16:56.504Z,100224.69
2022-12-11T11:19:39.486Z,100228.06
2022-12-11T11:22:20.505Z,100224.31
2022-12-11T11:25:00.291Z,100215.78
2022-12-11T11:27:41.039Z,100220.41
2022-12-11T11:30:24.960Z,100220.13
2022-12-11T11:33:13.401Z,100219.41
2022-12-11T11:35:54.401Z,100217.44
2022-12-11T11:38:36.173Z,100205.16
2022-12-11T11:41:18.538Z,100218.38
2022-12-11T11:44:03.144Z,100208.13
2022-12-11T11:46:45.023Z,100207.00
2022-12-11T11:49:26.970Z,100208.47
2022-12-11T11:52:08.991Z,100200.38
2022-12-11T11:54:51.627Z,100211.28
2022-12-11T11:57:33.683Z,100211.19
2022-12-11T12:00:20.642Z,100215.03
2022-12-11T12:03:03.478Z,100213.16
2022-12-11T12:05:44.377Z,100218.81
2022-12-11T12:08:34.241Z,100216.41
2022-12-11T12:11:13.911Z,100217.16
2022-12-11T12:13:56.948Z,100217.34
2022-12-11T12:16:55.118Z,100207.19
2022-12-11T12:19:47.142Z,100213.34
2022-12-11T12:22:32.143Z,100213.78
2022-12-11T12:25:15.599Z,100210.94
2022-12-11T12:28:04.153Z,100212.03
2022-12-11T12:30:46.404Z,100208.28
2022-12-11T12:33:28.439Z,100206.25
2022-12-11T12:36:12.319Z,100201.75
2022-12-11T12:38:56.105Z,100199.06
2022-12-11T12:41:37.167Z,100198.31
2022-12-11T12:44:18.569Z,100195.69
2022-12-11T12:47:00.107Z,100193.19
2022-12-11T12:49:41.649Z,100191.88
2022-12-11T12:52:23.119Z,100193.66
2022-12-11T12:55:17.590Z,100191.31
2022-12-11T12:58:00.207Z,100192.66
2022-12-11T13:00:41.565Z,100190.16
2022-12-11T13:03:22.644Z,100189.66
2022-12-11T13:06:05.110Z,100185.56
2022-12-11T13:08:48.406Z,100195.47
2022-12-11T13:11:34.988Z,100195.66
2022-12-11T13:14:28.658Z,100187.34
2022-12-11T13:17:23.562Z,100187.63
2022-12-11T13:20:16.232Z,100188.84
2022-12-11T13:22:58.142Z,100194.31
2022-12-11T13:25:48.281Z,100201.59
2022-12-11T13:28:31.355Z,100202.72
2022-12-11T13:31:31.000Z,100205.66
2022-12-11T13:34:16.466Z,100215.53
2022-12-11T13:36:57.691Z,100217.69
2022-12-11T13:39:39.305Z,100224.84
2022-12-11T13:42:23.386Z,100237.28
2022-12-11T13:45:03.311Z,100241.00
2022-12-11T13:47:43.117Z,100244.06
2022-12-11T13:50:27.769Z,100240.94
2022-12-11T13:53:15.426Z,100251.66
2022-12-11T13:56:01.470Z,100268.47
2022-12-11T13:58:43.456Z,100271.41
2022-12-11T14:01:25.144Z,100277.91
2022-12-11T14:04:07.778Z,100292.94
2022-12-11T14:06:48.869Z,100299.31
2022-12-11T14:09:30.671Z,100316.97
2022-12-11T14:12:18.295Z,100314.78
2022-12-11T14:15:02.144Z,100330.66
2022-12-11T14:17:47.107Z,100338.78
2022-12-11T14:20:30.860Z,100359.88
2022-12-11T14:23:17.508Z,100368.06
2022-12-11T14:25:58.629Z,100386.53
2022-12-11T14:28:39.823Z,100414.59
2022-12-11T14:31:28.520Z,100431.28
2022-12-11T14:34:12.895Z,100447.97
2022-12-11T14:36:53.364Z,100470.94
2022-12-11T14:39:36.051Z,100481.56
2022-12-11T14:42:18.612Z,100495.59
2022-12-11T14:44:59.418Z,100514.84
2022-12-11T14:47:41.738Z,100527.25
2022-12-11T14:50:22.541Z,100550.88
2022-12-11T14:53:05.599Z,100566.78
2022-12-11T14:55:46.520Z,100586.03
2022-12-11T14:58:27.727Z,100607.97
2022-12-11T15:01:21.123Z,100618.69
2022-12-11T15:04:05.882Z,100632.84
2022-12-11T15:06:48.661Z,100648.88
2022-12-11T15:09:29.805Z,100669.84
2022-12-11T15:12:12.506Z,100676.19
2022-12-11T15:14:55.766Z,100695.50
2022-12-11T15:17:37.404Z,100714.84
2022-12-11T15:20:25.371Z,100722.84
2022-12-11T15:23:07.639Z,100731.81
2022-12-11T15:25:52.359Z,100744.16
2022-12-11T15:28:34.229Z,100756.47
2022-12-11T15:31:24.895Z,100773.16
2022-12-11T15:37:02.627Z,100788.53
2022-12-11T15:39:45.590Z,100797.41
2022-12-11T15:42:32.917Z,100799.38
2022-12-11T15:45:17.787Z,100810.91
2022-12-11T15:48:00.974Z,100830.06
2022-12-11T15:50:41.954Z,100828.56
2022-12-11T15:53:23.467Z,100833.03
2022-12-11T15:56:04.878Z,100830.69
2022-12-11T15:58:46.418Z,100835.22
2022-12-11T16:01:27.718Z,100844.00
2022-12-11T16:04:08.971Z,100848.50
2022-12-11T16:06:48.800Z,100860.03
2022-12-11T16:09:28.569Z,100861.91
2022-12-11T16:12:08.729Z,100868.97
2022-12-11T16:14:49.780Z,100869.19
2022-12-11T16:17:29.825Z,100865.94
2022-12-11T16:20:11.723Z,100871.25
2022-12-11T16:22:52.585Z,100879.25
2022-12-11T16:25:33.854Z,100878.69
2022-12-11T16:28:14.003Z,100875.25
2022-12-11T16:30:55.081Z,100875.25
2022-12-11T16:33:36.501Z,100883.94
2022-12-11T16:36:16.702Z,100884.06
2022-12-11T16:38:59.627Z,100887.66
2022-12-11T16:41:40.649Z,100891.38
2022-12-11T16:44:21.419Z,100889.66
2022-12-11T16:47:03.978Z,100894.97
2022-12-11T16:49:45.147Z,100890.84
2022-12-11T16:52:26.354Z,100889.97
2022-12-11T16:55:09.184Z,100893.56
2022-12-11T16:57:49.154Z,100896.31
2022-12-11T17:00:31.177Z,100898.91
2022-12-11T17:03:11.971Z,100893.94
2022-12-11T17:05:53.367Z,100891.41
2022-12-11T17:08:33.187Z,100887.16
2022-12-11T17:11:15.261Z,100881.28
2022-12-11T17:13:58.304Z,100884.78
2022-12-11T17:16:38.973Z,100876.22
2022-12-11T17:19:19.698Z,100883.22
2022-12-11T17:22:00.134Z,100882.47
2022-12-11T17:24:40.103Z,100889.44
2022-12-11T17:27:21.368Z,100880.88
2022-12-11T17:30:01.198Z,100882.66
2022-12-11T17:32:41.001Z,100883.50
2022-12-11T17:35:20.789Z,100878.44
2022-12-11T17:38:21.424Z,100875.97
2022-12-11T17:41:01.207Z,100869.00
2022-12-11T17:43:41.332Z,100874.28
2022-12-11T17:46:22.534Z,100872.53
2022-12-11T17:49:06.016Z,100876.06
2022-12-11T17:51:47.743Z,100874.38
2022-12-11T17:54:28.224Z,100866.69
2022-12-11T17:57:08.280Z,100865.06
2022-12-11T17:59:49.796Z,100864.22
2022-12-11T18:02:30.799Z,100861.66
2022-12-11T18:05:11.825Z,100859.19
2022-12-11T18:07:57.477Z,100861.00
2022-12-11T18:10:38.413Z,100866.16
2022-12-11T18:13:19.763Z,100867.06
2022-12-11T18:16:01.853Z,100861.13
2022-12-11T18:18:42.711Z,100869.75
2022-12-11T18:21:25.016Z,100872.38
2022-12-11T18:24:05.848Z,100874.97
2022-12-11T18:26:46.735Z,100878.50
2022-12-11T18:29:26.496Z,100885.38
2022-12-11T18:32:06.550Z,100894.03
2022-12-11T18:34:48.704Z,100896.72
2022-12-11T18:37:28.205Z,100901.88
2022-12-11T18:40:09.835Z,100901.88
2022-12-11T18:42:50.337Z,100912.97
2022-12-11T18:45:30.209Z,100913.81
2022-12-11T18:48:10.013Z,100925.88
2022-12-11T18:50:52.186Z,100938.75
2022-12-11T18:53:32.819Z,100946.38
2022-12-11T18:56:13.935Z,100951.50
2022-12-11T18:58:54.046Z,100960.94
2022-12-11T19:01:34.594Z,100970.38
2022-12-11T19:04:17.164Z,100976.38
2022-12-11T19:06:58.293Z,100986.78
2022-12-11T19:09:43.492Z,100999.69
2022-12-11T19:12:29.475Z,101005.75
2022-12-11T19:15:11.510Z,101009.94
2022-12-11T19:17:51.812Z,101011.63
2022-12-11T19:20:48.560Z,101022.81
2022-12-11T19:23:31.672Z,101034.94
2022-12-11T19:26:14.699Z,101037.59
2022-12-11T19:28:56.860Z,101042.75
2022-12-11T19:31:38.452Z,101051.38
2022-12-11T19:34:19.767Z,101048.84
2022-12-11T19:37:00.885Z,101056.59
2022-12-11T19:39:40.575Z,101053.16
2022-12-11T19:42:20.580Z,101057.53
2022-12-11T19:45:02.781Z,101065.34
2022-12-11T19:47:43.563Z,101063.72
2022-12-11T19:50:24.723Z,101058.59
2022-12-11T19:53:05.011Z,101056.09
2022-12-11T19:55:51.749Z,101051.84
2022-12-11T19:58:34.215Z,101034.72
2022-12-11T20:01:21.245Z,101030.47
2022-12-11T20:04:02.115Z,101013.22
2022-12-11T20:06:43.755Z,101009.00
2022-12-11T20:09:24.250Z,101008.19
2022-12-11T20:12:10.177Z,101002.22
2022-12-11T20:14:50.163Z,100993.66
2022-12-11T20:17:30.196Z,100992.03
2022-12-11T20:20:13.591Z,100983.53
2022-12-11T20:22:54.587Z,100979.25
2022-12-11T20:25:35.930Z,100978.53
2022-12-11T20:28:18.125Z,100982.06
2022-12-11T20:30:58.589Z,100964.94
2022-12-11T20:33:38.585Z,100955.50
2022-12-11T20:36:20.687Z,100960.75
2022-12-11T20:39:01.241Z,100951.34
2022-12-11T20:41:41.180Z,100944.53
2022-12-11T20:44:22.673Z,100935.97
2022-12-11T20:47:03.913Z,100937.75
2022-12-11T20:49:45.247Z,100930.97
2022-12-11T20:52:25.203Z,100929.28
2022-12-11T20:55:07.070Z,100923.34
2022-12-11T20:57:49.983Z,100923.44
2022-12-11T21:00:30.877Z,100921.75
2022-12-11T21:03:10.708Z,100922.72
2022-12-11T21:05:50.554Z,100916.72
2022-12-11T21:08:32.378Z,100911.66
2022-12-11T21:11:13.645Z,100908.31
2022-12-11T21:13:54.862Z,100905.78
2022-12-11T21:16:37.623Z,100909.25
2022-12-11T21:19:21.121Z,100901.59
2022-12-11T21:22:21.331Z,100911.09
2022-12-11T21:25:01.165Z,100901.63
2022-12-11T21:27:41.006Z,100906.03
2022-12-11T21:30:20.806Z,100907.78
2022-12-11T21:33:00.840Z,100908.66
2022-12-11T21:35:42.127Z,100902.66
2022-12-11T21:38:23.726Z,100895.88
2022-12-11T21:41:09.207Z,100895.06
2022-12-11T21:46:51.721Z,100881.25
2022-12-11T21:49:33.004Z,100886.44
2022-12-11T21:52:13.168Z,100879.59
2022-12-11T21:54:54.545Z,100879.66
2022-12-11T21:57:35.671Z,100881.44
2022-12-11T22:00:16.298Z,100870.28
2022-12-11T22:02:56.928Z,100860.88
2022-12-11T22:05:40.257Z,100871.25
2022-12-11T22:08:21.509Z,100873.09
2022-12-11T22:11:02.819Z,100871.34
2022-12-11T22:13:44.074Z,100873.94
2022-12-11T22:16:24.240Z,100868.75
2022-12-11T22:19:05.354Z,100870.50
2022-12-11T22:21:45.107Z,100870.50
2022-12-11T22:24:24.911Z,100868.78
2022-12-11T22:27:07.986Z,100881.69
2022-12-11T22:29:49.277Z,100872.28
2022-12-11T22:32:29.109Z,100871.47
2022-12-11T22:35:09.752Z,100869.69
2022-12-11T22:37:51.808Z,100880.03
2022-12-11T22:40:32.077Z,100874.88
2022-12-11T22:43:15.127Z,100877.44
2022-12-11T22:45:56.227Z,100880.94
2022-12-11T22:48:37.583Z,100884.31
2022-12-11T22:51:19.481Z,100890.34
2022-12-11T22:54:02.346Z,100886.09
2022-12-11T22:56:43.427Z,100883.56
2022-12-11T22:59:24.838Z,100881.81
2022-12-11T23:02:04.691Z,100882.69
2022-12-11T23:04:46.178Z,100874.94
2022-12-11T23:07:28.218Z,100881.91
2022-12-11T23:10:09.924Z,100869.88
2022-12-11T23:12:50.218Z,100881.16
2022-12-11T23:15:30.331Z,100876.88
2022-12-11T23:18:11.477Z,100877.75
2022-12-11T23:20:51.292Z,100868.34
2022-12-11T23:23:33.045Z,100865.75
2022-12-11T23:26:14.583Z,100864.91
2022-12-11T23:28:55.551Z,100864.06
2022-12-11T23:31:38.869Z,100872.66
2022-12-11T23:34:21.903Z,100876.19
2022-12-11T23:37:04.930Z,100871.00
2022-12-11T23:39:45.861Z,100864.09
2022-12-11T23:42:25.670Z,100860.66
2022-12-11T23:45:08.160Z,100864.06
2022-12-11T23:47:50.474Z,100863.16
2022-12-11T23:50:32.823Z,100874.38
2022-12-11T23:53:12.928Z,100873.50
2022-12-11T23:55:54.845Z,100878.66
2022-12-11T23:58:37.385Z,100887.22
